Time;durP1;ratioP1;P1;durP2;ratioP2;P2;SDS_P1;SDS_P2;PMS_P1;PMS_P2;Temp;Humidity;BMP_temperature;BMP_pressure;BME280_temperature;BME280_humidity;BME280_pressure;Samples;Min_cycle;Max_cycle;Signal;HPM_P1;HPM_P2
2023/12/30 00:01:50;;;;;;;;;7.33;5.00;;;;;;;;5108009;27;28334;-75
2023/12/30 00:04:16;;;;;;;;;10.67;8.00;;;;;;;;5100500;27;28426;-73
2023/12/30 00:06:43;;;;;;;;;7.33;6.67;;;;;;;;5097657;27;28536;-74
2023/12/30 00:09:08;;;;;;;;;3.67;3.67;;;;;;;;5075216;28;30021;-74
2023/12/30 00:11:33;;;;;;;;;5.33;3.33;;;;;;;;5090366;27;28481;-74
2023/12/30 00:13:59;;;;;;;;;5.67;4.00;;;;;;;;5092003;28;28804;-73
2023/12/30 00:16:25;;;;;;;;;3.33;3.00;;;;;;;;5072347;28;28659;-72
2023/12/30 00:18:50;;;;;;;;;5.00;3.00;;;;;;;;5067161;28;30021;-73
2023/12/30 00:21:19;;;;;;;;;5.00;3.33;;;;;;;;5090013;27;28529;-73
2023/12/30 00:23:44;;;;;;;;;5.67;5.67;;;;;;;;5090092;27;28945;-74
2023/12/30 00:26:18;;;;;;;;;5.67;3.67;;;;;;;;5065535;28;30610;-75
2023/12/30 00:28:43;;;;;;;;;4.33;4.33;;;;;;;;5090408;28;28391;-74
2023/12/30 00:31:08;;;;;;;;;5.00;3.67;;;;;;;;5090124;28;28476;-73
2023/12/30 00:33:33;;;;;;;;;2.33;1.67;;;;;;;;5072693;28;28369;-73
2023/12/30 00:35:59;;;;;;;;;8.00;3.67;;;;;;;;5090400;27;28392;-72
2023/12/30 00:38:24;;;;;;;;;4.33;3.67;;;;;;;;5091176;28;28635;-73
2023/12/30 00:40:49;;;;;;;;;9.67;6.67;;;;;;;;5081043;27;28522;-72
2023/12/30 00:43:14;;;;;;;;;10.33;8.33;;;;;;;;5072884;28;28742;-73
2023/12/30 00:45:39;;;;;;;;;6.33;3.00;;;;;;;;5088764;28;28758;-73
2023/12/30 00:48:05;;;;;;;;;2.67;1.67;;;;;;;;5089990;28;29290;-73
2023/12/30 00:50:30;;;;;;;;;7.00;4.67;;;;;;;;5072303;28;28419;-74
2023/12/30 00:52:55;;;;;;;;;11.33;7.33;;;;;;;;5089824;28;28368;-74
2023/12/30 00:55:20;;;;;;;;;4.00;4.00;;;;;;;;5090190;27;28449;-73
2023/12/30 00:57:46;;;;;;;;;7.00;3.00;;;;;;;;5089375;28;29261;-74
2023/12/30 01:00:11;;;;;;;;;6.33;5.67;;;;;;;;5090605;28;28447;-75
2023/12/30 01:02:36;;;;;;;;;7.00;3.67;;;;;;;;5090346;28;28608;-74
2023/12/30 01:05:02;;;;;;;;;6.00;5.00;;;;;;;;5089473;27;28589;-75
2023/12/30 01:07:27;;;;;;;;;5.67;3.00;;;;;;;;5090385;27;28506;-73
2023/12/30 01:09:52;;;;;;;;;7.33;2.67;;;;;;;;5090142;27;28404;-74
2023/12/30 01:12:18;;;;;;;;;5.67;4.00;;;;;;;;5090552;27;28365;-74
2023/12/30 01:14:43;;;;;;;;;7.33;2.67;;;;;;;;5089582;27;28616;-73
2023/12/30 01:17:08;;;;;;;;;4.33;2.67;;;;;;;;5072227;28;29397;-72
2023/12/30 01:19:33;;;;;;;;;5.00;4.00;;;;;;;;5090678;28;28477;-72
2023/12/30 01:21:59;;;;;;;;;7.33;6.33;;;;;;;;5090341;28;28948;-73
2023/12/30 01:24:26;;;;;;;;;8.00;6.00;;;;;;;;5089794;28;28478;-74
2023/12/30 01:26:51;;;;;;;;;0.00;0.00;;;;;;;;5071965;28;30646;-72
2023/12/30 01:29:16;;;;;;;;;14.67;10.00;;;;;;;;5089908;28;28452;-72
2023/12/30 01:31:41;;;;;;;;;6.67;4.33;;;;;;;;5089515;27;28570;-71
2023/12/30 01:34:07;;;;;;;;;4.67;4.00;;;;;;;;5089927;28;28482;-73
2023/12/30 01:36:32;;;;;;;;;8.00;4.00;;;;;;;;5089775;27;28453;-73
2023/12/30 01:38:57;;;;;;;;;6.33;5.67;;;;;;;;5089833;28;28411;-72
2023/12/30 01:41:22;;;;;;;;;5.00;2.67;;;;;;;;5071525;28;28310;-72
2023/12/30 01:43:48;;;;;;;;;6.67;5.67;;;;;;;;5089636;27;28388;-73
2023/12/30 01:46:13;;;;;;;;;10.33;7.00;;;;;;;;5089506;27;28559;-72
2023/12/30 01:48:39;;;;;;;;;3.00;3.00;;;;;;;;5088500;28;28771;-74
2023/12/30 01:51:04;;;;;;;;;5.00;2.67;;;;;;;;5088038;28;28591;-72
2023/12/30 01:53:35;;;;;;;;;5.67;3.67;;;;;;;;5089774;28;28827;-74
2023/12/30 01:56:00;;;;;;;;;4.00;2.00;;;;;;;;5071075;28;29606;-74
2023/12/30 01:58:25;;;;;;;;;5.33;3.00;;;;;;;;5088490;28;28439;-74
2023/12/30 02:00:51;;;;;;;;;7.33;2.00;;;;;;;;5089032;28;28695;-74
2023/12/30 02:03:17;;;;;;;;;3.67;2.67;;;;;;;;5089311;27;28366;-73
2023/12/30 02:05:42;;;;;;;;;6.00;3.67;;;;;;;;5089064;27;28752;-74
2023/12/30 02:08:08;;;;;;;;;6.00;4.00;;;;;;;;5088413;28;28416;-72
2023/12/30 02:10:33;;;;;;;;;5.67;3.00;;;;;;;;5089298;28;28747;-74
2023/12/30 02:12:58;;;;;;;;;1.33;1.00;;;;;;;;5089730;27;28406;-72
2023/12/30 02:15:26;;;;;;;;;7.67;3.67;;;;;;;;5087184;28;29662;-73
2023/12/30 02:17:55;;;;;;;;;6.33;3.00;;;;;;;;5089656;27;28530;-73
2023/12/30 02:20:20;;;;;;;;;3.00;3.00;;;;;;;;5089025;28;28474;-73
2023/12/30 02:22:45;;;;;;;;;4.33;3.67;;;;;;;;5089066;27;28687;-73
2023/12/30 02:25:11;;;;;;;;;6.00;3.67;;;;;;;;5088906;28;28596;-73
2023/12/30 02:27:36;;;;;;;;;4.67;2.00;;;;;;;;5088419;28;28544;-73
2023/12/30 02:30:01;;;;;;;;;4.00;2.00;;;;;;;;5089399;28;28442;-73
2023/12/30 02:32:27;;;;;;;;;6.67;4.00;;;;;;;;5069918;28;29431;-74
2023/12/30 02:34:52;;;;;;;;;3.00;2.00;;;;;;;;5087677;28;28477;-73
2023/12/30 02:37:18;;;;;;;;;7.00;4.00;;;;;;;;5091470;27;28449;-73
2023/12/30 02:39:43;;;;;;;;;4.00;3.00;;;;;;;;5091786;28;28395;-73
2023/12/30 02:42:08;;;;;;;;;8.00;3.00;;;;;;;;5090428;28;28648;-74
2023/12/30 02:44:33;;;;;;;;;7.67;4.00;;;;;;;;5090352;28;28392;-73
2023/12/30 02:46:59;;;;;;;;;4.33;2.00;;;;;;;;5090754;28;28516;-74
2023/12/30 02:49:24;;;;;;;;;3.67;2.33;;;;;;;;5092661;27;28321;-74
2023/12/30 02:51:49;;;;;;;;;5.67;3.67;;;;;;;;5090754;28;28504;-74
2023/12/30 02:54:14;;;;;;;;;2.67;2.67;;;;;;;;5092028;28;28500;-73
2023/12/30 02:56:40;;;;;;;;;5.33;4.00;;;;;;;;5078486;28;28897;-74
2023/12/30 02:59:05;;;;;;;;;5.33;3.67;;;;;;;;5092405;28;28438;-75
2023/12/30 03:01:31;;;;;;;;;7.00;3.67;;;;;;;;5092055;27;28426;-75
2023/12/30 03:03:57;;;;;;;;;4.67;2.00;;;;;;;;5091493;27;28692;-74
2023/12/30 03:06:23;;;;;;;;;6.00;3.00;;;;;;;;5091699;27;28582;-74
2023/12/30 03:08:48;;;;;;;;;6.33;4.33;;;;;;;;5073142;28;28471;-73
2023/12/30 03:11:14;;;;;;;;;3.33;2.67;;;;;;;;5091040;27;28843;-72
2023/12/30 03:13:39;;;;;;;;;2.33;1.00;;;;;;;;5092209;28;29531;-72
2023/12/30 03:16:05;;;;;;;;;4.00;2.67;;;;;;;;5091460;27;29060;-71
2023/12/30 03:18:30;;;;;;;;;1.00;1.00;;;;;;;;5091771;28;28415;-73
2023/12/30 03:20:55;;;;;;;;;2.00;2.00;;;;;;;;5091113;27;28659;-71
2023/12/30 03:23:21;;;;;;;;;5.33;2.33;;;;;;;;5091697;27;29018;-72
2023/12/30 03:25:46;;;;;;;;;2.33;1.00;;;;;;;;5091553;28;28681;-71
2023/12/30 03:28:11;;;;;;;;;5.67;2.33;;;;;;;;5091576;28;28721;-72
2023/12/30 03:30:36;;;;;;;;;4.00;2.33;;;;;;;;5091600;28;28497;-72
2023/12/30 03:33:02;;;;;;;;;2.00;2.00;;;;;;;;5091311;27;28612;-71
2023/12/30 03:35:27;;;;;;;;;5.00;2.00;;;;;;;;5091486;28;28325;-71
2023/12/30 03:37:52;;;;;;;;;2.00;2.00;;;;;;;;5090274;27;28349;-69
2023/12/30 03:40:18;;;;;;;;;4.33;3.00;;;;;;;;5091476;28;28478;-68
2023/12/30 03:42:43;;;;;;;;;3.00;1.33;;;;;;;;5091567;27;28459;-71
2023/12/30 03:45:08;;;;;;;;;5.67;3.00;;;;;;;;5091419;27;28439;-72
2023/12/30 03:47:33;;;;;;;;;2.00;2.00;;;;;;;;5090538;28;28619;-74
2023/12/30 03:49:59;;;;;;;;;3.33;3.00;;;;;;;;5091444;28;28697;-72
2023/12/30 03:52:24;;;;;;;;;3.33;2.67;;;;;;;;5078181;27;28408;-72
2023/12/30 03:54:51;;;;;;;;;5.33;2.00;;;;;;;;5091635;28;28580;-72
2023/12/30 03:57:16;;;;;;;;;5.33;2.67;;;;;;;;5091017;28;28881;-73
2023/12/30 03:59:41;;;;;;;;;5.00;2.00;;;;;;;;5090552;27;29427;-72
2023/12/30 04:02:07;;;;;;;;;6.67;2.00;;;;;;;;5090478;27;28494;-74
2023/12/30 04:04:32;;;;;;;;;2.00;2.00;;;;;;;;5091594;28;28489;-72
2023/12/30 04:06:57;;;;;;;;;4.33;4.00;;;;;;;;5090868;27;28731;-72
2023/12/30 04:09:22;;;;;;;;;6.67;2.00;;;;;;;;5088879;27;28817;-75
2023/12/30 04:11:48;;;;;;;;;6.33;2.67;;;;;;;;5090233;28;29058;-74
2023/12/30 04:14:13;;;;;;;;;5.00;2.00;;;;;;;;5091334;27;28482;-70
2023/12/30 04:16:38;;;;;;;;;1.67;1.67;;;;;;;;5090438;28;28561;-72
2023/12/30 04:19:03;;;;;;;;;2.00;2.00;;;;;;;;5091368;27;29442;-71
2023/12/30 04:21:29;;;;;;;;;3.33;3.33;;;;;;;;5091383;28;29317;-71
2023/12/30 04:23:54;;;;;;;;;4.00;3.00;;;;;;;;5090595;27;28447;-74
2023/12/30 04:26:19;;;;;;;;;2.00;2.00;;;;;;;;5090114;27;28445;-72
2023/12/30 04:28:46;;;;;;;;;5.33;4.67;;;;;;;;5091218;28;28932;-72
2023/12/30 04:31:11;;;;;;;;;3.00;1.00;;;;;;;;5090447;27;28495;-72
2023/12/30 04:33:36;;;;;;;;;3.67;2.00;;;;;;;;5090567;27;28408;-72
2023/12/30 04:36:02;;;;;;;;;5.00;3.67;;;;;;;;5087184;27;28435;-73
2023/12/30 04:38:27;;;;;;;;;5.00;3.00;;;;;;;;5090913;27;28064;-73
2023/12/30 04:40:53;;;;;;;;;2.00;2.00;;;;;;;;5090006;28;28490;-73
2023/12/30 04:43:18;;;;;;;;;1.33;1.33;;;;;;;;5089932;27;28410;-73
2023/12/30 04:45:43;;;;;;;;;6.33;3.00;;;;;;;;5091494;27;28385;-73
2023/12/30 04:48:09;;;;;;;;;1.00;0.67;;;;;;;;5091206;27;28608;-73
2023/12/30 04:50:34;;;;;;;;;2.00;2.00;;;;;;;;5071256;28;31189;-73
2023/12/30 04:52:59;;;;;;;;;6.00;2.67;;;;;;;;5089865;27;28544;-74
2023/12/30 04:55:25;;;;;;;;;5.00;2.00;;;;;;;;5092697;28;28447;-73
2023/12/30 04:57:50;;;;;;;;;7.33;5.00;;;;;;;;5092190;28;28483;-74
2023/12/30 05:00:15;;;;;;;;;7.00;2.00;;;;;;;;5090420;28;28417;-74
2023/12/30 05:02:41;;;;;;;;;4.00;1.00;;;;;;;;5088904;28;28435;-72
2023/12/30 05:05:06;;;;;;;;;4.00;1.33;;;;;;;;5080716;27;28769;-74
2023/12/30 05:07:31;;;;;;;;;6.33;2.00;;;;;;;;5079556;27;28534;-73
2023/12/30 05:09:57;;;;;;;;;4.00;2.00;;;;;;;;5096273;27;28381;-73
2023/12/30 05:12:23;;;;;;;;;3.00;3.00;;;;;;;;5097045;27;29276;-74
2023/12/30 05:14:48;;;;;;;;;4.00;3.00;;;;;;;;5090151;27;28853;-73
2023/12/30 05:17:13;;;;;;;;;3.67;1.00;;;;;;;;5089966;27;28656;-73
2023/12/30 05:19:38;;;;;;;;;5.00;3.67;;;;;;;;5090098;27;28830;-74
2023/12/30 05:22:04;;;;;;;;;4.33;2.33;;;;;;;;5059347;27;28527;-74
2023/12/30 05:24:29;;;;;;;;;3.67;3.67;;;;;;;;5089988;27;28624;-70
2023/12/30 05:26:54;;;;;;;;;2.33;2.00;;;;;;;;5090054;28;28665;-69
2023/12/30 05:29:20;;;;;;;;;1.00;1.00;;;;;;;;5071844;28;28508;-74
2023/12/30 05:31:45;;;;;;;;;5.67;2.67;;;;;;;;5090238;27;28459;-73
2023/12/30 05:34:11;;;;;;;;;4.33;2.67;;;;;;;;5089495;27;28871;-70
2023/12/30 05:36:37;;;;;;;;;6.00;4.00;;;;;;;;5089388;28;28696;-68
2023/12/30 05:39:03;;;;;;;;;6.33;2.67;;;;;;;;5070821;28;29962;-70
2023/12/30 05:41:28;;;;;;;;;7.00;3.33;;;;;;;;5076294;27;29508;-73
2023/12/30 05:43:54;;;;;;;;;1.33;1.33;;;;;;;;5089926;27;28357;-73
2023/12/30 05:46:19;;;;;;;;;3.33;3.00;;;;;;;;5083040;27;28545;-71
2023/12/30 05:48:44;;;;;;;;;7.33;3.00;;;;;;;;5069934;28;30637;-71
2023/12/30 05:51:10;;;;;;;;;4.00;2.67;;;;;;;;5070224;28;28532;-69
2023/12/30 05:53:35;;;;;;;;;3.33;2.00;;;;;;;;5087850;28;28471;-69
2023/12/30 05:56:00;;;;;;;;;3.00;3.00;;;;;;;;5088482;28;28433;-74
2023/12/30 05:58:26;;;;;;;;;6.00;1.33;;;;;;;;5088333;28;28526;-75
2023/12/30 06:00:51;;;;;;;;;4.00;3.00;;;;;;;;5083122;27;28480;-72
2023/12/30 06:03:16;;;;;;;;;1.00;1.00;;;;;;;;5087147;27;28956;-74
2023/12/30 06:05:42;;;;;;;;;2.33;2.00;;;;;;;;5085660;28;28767;-74
2023/12/30 06:08:07;;;;;;;;;3.67;2.67;;;;;;;;5097803;27;28459;-74
2023/12/30 06:10:32;;;;;;;;;3.33;2.33;;;;;;;;5087266;27;28731;-73
2023/12/30 06:12:57;;;;;;;;;5.00;4.00;;;;;;;;5088065;27;28844;-74
2023/12/30 06:15:23;;;;;;;;;4.33;2.00;;;;;;;;5070125;28;29401;-74
2023/12/30 06:17:48;;;;;;;;;5.33;3.00;;;;;;;;5091261;27;29005;-74
2023/12/30 06:20:13;;;;;;;;;1.67;1.67;;;;;;;;5093283;27;28507;-73
2023/12/30 06:22:38;;;;;;;;;3.33;2.00;;;;;;;;5093300;27;28574;-74
2023/12/30 06:25:03;;;;;;;;;3.67;2.00;;;;;;;;5094266;27;28586;-75
2023/12/30 06:27:29;;;;;;;;;5.67;3.67;;;;;;;;5091519;27;28450;-75
2023/12/30 06:29:54;;;;;;;;;3.67;2.00;;;;;;;;5093378;27;28834;-75
2023/12/30 06:32:19;;;;;;;;;2.00;2.00;;;;;;;;5091427;28;28477;-76
2023/12/30 06:34:45;;;;;;;;;5.33;2.00;;;;;;;;5091443;28;29054;-75
2023/12/30 06:37:10;;;;;;;;;1.00;1.00;;;;;;;;5091862;28;28450;-74
2023/12/30 06:39:35;;;;;;;;;4.00;2.67;;;;;;;;5087114;28;28454;-74
2023/12/30 06:42:00;;;;;;;;;5.67;3.00;;;;;;;;5091654;27;28494;-73
2023/12/30 06:44:25;;;;;;;;;2.00;2.00;;;;;;;;5095003;27;28600;-74
2023/12/30 06:46:51;;;;;;;;;6.67;3.00;;;;;;;;5091617;28;29235;-74
2023/12/30 06:49:16;;;;;;;;;4.00;2.67;;;;;;;;5091836;27;28480;-74
2023/12/30 06:51:42;;;;;;;;;5.67;3.00;;;;;;;;5094731;27;28586;-73
2023/12/30 06:54:07;;;;;;;;;4.67;2.33;;;;;;;;5092384;27;28798;-74
2023/12/30 06:56:32;;;;;;;;;3.00;2.00;;;;;;;;5091799;27;28910;-73
2023/12/30 06:58:58;;;;;;;;;2.67;1.33;;;;;;;;5088197;27;28385;-74
2023/12/30 07:01:24;;;;;;;;;7.67;3.00;;;;;;;;5092257;27;28289;-73
2023/12/30 07:03:49;;;;;;;;;4.67;3.67;;;;;;;;5073018;27;28899;-73
2023/12/30 07:06:14;;;;;;;;;2.33;1.00;;;;;;;;5074388;28;28457;-73
2023/12/30 07:08:39;;;;;;;;;3.67;2.67;;;;;;;;5093938;27;28673;-75
2023/12/30 07:11:05;;;;;;;;;5.33;2.67;;;;;;;;5094512;27;29024;-74
2023/12/30 07:13:30;;;;;;;;;2.00;2.00;;;;;;;;5091535;28;29611;-73
2023/12/30 07:15:55;;;;;;;;;5.67;3.33;;;;;;;;5091153;28;28666;-72
2023/12/30 07:18:20;;;;;;;;;5.67;3.33;;;;;;;;5091309;28;28839;-71
2023/12/30 07:20:46;;;;;;;;;8.33;4.33;;;;;;;;5086243;27;28772;-76
2023/12/30 07:23:11;;;;;;;;;6.00;4.33;;;;;;;;5084552;27;28748;-73
2023/12/30 07:25:37;;;;;;;;;5.33;4.33;;;;;;;;5086825;27;28571;-71
2023/12/30 07:28:02;;;;;;;;;4.67;3.67;;;;;;;;5083816;27;29001;-73
2023/12/30 07:30:27;;;;;;;;;8.00;4.33;;;;;;;;5087969;27;28580;-72
2023/12/30 07:32:53;;;;;;;;;4.00;4.00;;;;;;;;5090242;27;28580;-72
2023/12/30 07:35:18;;;;;;;;;4.00;2.00;;;;;;;;5085363;27;28483;-72
2023/12/30 07:37:45;;;;;;;;;4.67;3.00;;;;;;;;5058570;28;28533;-72
2023/12/30 07:40:11;;;;;;;;;3.33;2.00;;;;;;;;5072174;28;28553;-72
2023/12/30 07:42:36;;;;;;;;;4.00;3.00;;;;;;;;5060463;28;28699;-70
2023/12/30 07:45:02;;;;;;;;;2.33;2.00;;;;;;;;5059849;28;28939;-66
2023/12/30 07:47:27;;;;;;;;;3.67;2.67;;;;;;;;5067476;28;28787;-69
2023/12/30 07:49:53;;;;;;;;;2.00;2.00;;;;;;;;5064673;28;28814;-70
2023/12/30 07:52:18;;;;;;;;;8.67;5.67;;;;;;;;5068820;28;29426;-70
2023/12/30 07:54:43;;;;;;;;;4.00;3.00;;;;;;;;5066136;28;29780;-71
2023/12/30 07:57:09;;;;;;;;;3.67;1.67;;;;;;;;5067889;28;28411;-72
2023/12/30 07:59:34;;;;;;;;;3.00;2.00;;;;;;;;5068158;28;28735;-70
2023/12/30 08:01:59;;;;;;;;;3.67;2.33;;;;;;;;5060460;28;29015;-72
2023/12/30 08:04:24;;;;;;;;;4.00;3.00;;;;;;;;5068142;28;29046;-70
2023/12/30 08:06:50;;;;;;;;;4.00;3.33;;;;;;;;5067635;28;28906;-72
2023/12/30 08:09:15;;;;;;;;;2.33;1.67;;;;;;;;5069733;28;28411;-71
2023/12/30 08:11:41;;;;;;;;;6.33;3.33;;;;;;;;5068532;28;28439;-71
2023/12/30 08:14:07;;;;;;;;;4.00;2.67;;;;;;;;5065204;28;28951;-72
2023/12/30 08:16:34;;;;;;;;;7.00;3.00;;;;;;;;5067397;28;28825;-72
2023/12/30 08:18:59;;;;;;;;;7.67;7.00;;;;;;;;5070816;28;28431;-72
2023/12/30 08:21:24;;;;;;;;;7.33;5.33;;;;;;;;5068429;28;28991;-71
2023/12/30 08:23:50;;;;;;;;;5.00;0.00;;;;;;;;5067293;28;28915;-73
2023/12/30 08:26:15;;;;;;;;;3.00;2.00;;;;;;;;5067309;28;28769;-71
2023/12/30 08:28:42;;;;;;;;;6.00;3.67;;;;;;;;5069313;28;28748;-73
2023/12/30 08:31:07;;;;;;;;;6.33;2.00;;;;;;;;5067435;28;28560;-70
2023/12/30 08:33:32;;;;;;;;;6.00;4.67;;;;;;;;5071385;28;28609;-71
2023/12/30 08:35:57;;;;;;;;;3.00;3.00;;;;;;;;5075766;28;28844;-71
2023/12/30 08:38:22;;;;;;;;;4.67;2.33;;;;;;;;5085176;27;28650;-70
2023/12/30 08:40:48;;;;;;;;;3.00;1.33;;;;;;;;5088690;28;28613;-71
2023/12/30 08:43:13;;;;;;;;;2.67;1.67;;;;;;;;5078902;27;29930;-71
2023/12/30 08:45:39;;;;;;;;;1.67;1.67;;;;;;;;5088700;28;28584;-71
2023/12/30 08:48:04;;;;;;;;;2.67;1.00;;;;;;;;5073098;28;28927;-78
2023/12/30 08:50:33;;;;;;;;;3.00;2.00;;;;;;;;5084805;27;29081;-79
2023/12/30 08:52:58;;;;;;;;;4.00;2.00;;;;;;;;5088630;27;28953;-72
2023/12/30 08:55:23;;;;;;;;;3.33;0.67;;;;;;;;5065456;28;28617;-73
2023/12/30 08:57:49;;;;;;;;;1.00;0.33;;;;;;;;5089392;28;28522;-72
2023/12/30 09:00:15;;;;;;;;;3.67;1.33;;;;;;;;5099462;27;28811;-74
2023/12/30 09:02:46;;;;;;;;;3.33;0.67;;;;;;;;5089102;28;28724;-82
2023/12/30 09:05:15;;;;;;;;;2.33;2.00;;;;;;;;5091798;28;28396;-79
2023/12/30 09:07:40;;;;;;;;;3.33;2.33;;;;;;;;5076755;27;28566;-77
2023/12/30 09:10:12;;;;;;;;;2.33;2.33;;;;;;;;5083785;27;28913;-80
2023/12/30 09:12:37;;;;;;;;;4.33;1.67;;;;;;;;5084802;27;29295;-79
2023/12/30 09:15:05;;;;;;;;;0.67;0.67;;;;;;;;5092957;27;28708;-78
2023/12/30 09:17:30;;;;;;;;;1.00;1.00;;;;;;;;5085539;27;29062;-77
2023/12/30 09:19:56;;;;;;;;;1.00;1.00;;;;;;;;5096456;27;28795;-77
2023/12/30 09:22:22;;;;;;;;;2.67;1.67;;;;;;;;5080595;27;28537;-76
2023/12/30 09:24:48;;;;;;;;;1.33;1.33;;;;;;;;5091358;27;28403;-80
2023/12/30 09:27:13;;;;;;;;;1.67;0.67;;;;;;;;5091318;27;28410;-77
2023/12/30 09:29:38;;;;;;;;;5.00;1.00;;;;;;;;5102304;27;28539;-79
2023/12/30 09:32:04;;;;;;;;;5.33;2.00;;;;;;;;5088215;28;29217;-80
2023/12/30 09:34:29;;;;;;;;;3.00;3.00;;;;;;;;5083499;28;28506;-77
2023/12/30 09:36:54;;;;;;;;;1.33;1.33;;;;;;;;5090620;27;28446;-78
2023/12/30 09:39:19;;;;;;;;;2.00;2.00;;;;;;;;5092910;27;29150;-74
2023/12/30 09:41:45;;;;;;;;;5.00;2.00;;;;;;;;5089397;27;28996;-77
2023/12/30 09:44:11;;;;;;;;;4.33;3.00;;;;;;;;5090289;28;28522;-78
2023/12/30 09:46:37;;;;;;;;;3.00;3.00;;;;;;;;5093042;27;28460;-78
2023/12/30 09:49:03;;;;;;;;;4.33;3.00;;;;;;;;5094175;27;28653;-78
2023/12/30 09:51:29;;;;;;;;;4.00;4.00;;;;;;;;5093061;27;28858;-78
2023/12/30 09:53:55;;;;;;;;;2.33;2.00;;;;;;;;5092014;28;28445;-78
2023/12/30 09:56:21;;;;;;;;;3.00;1.33;;;;;;;;5091985;28;28998;-78
2023/12/30 09:58:47;;;;;;;;;4.00;3.67;;;;;;;;5094328;27;29069;-81
2023/12/30 10:01:13;;;;;;;;;2.00;1.00;;;;;;;;5091657;27;28529;-79
2023/12/30 10:03:38;;;;;;;;;3.67;1.67;;;;;;;;5092920;28;28543;-78
2023/12/30 10:06:03;;;;;;;;;1.67;1.67;;;;;;;;5094922;27;28761;-79
2023/12/30 10:08:29;;;;;;;;;1.00;1.00;;;;;;;;5099277;27;28965;-81
2023/12/30 10:10:54;;;;;;;;;2.00;2.00;;;;;;;;5093138;27;28562;-78
2023/12/30 10:13:25;;;;;;;;;2.00;1.00;;;;;;;;5095395;27;28412;-80
2023/12/30 10:15:51;;;;;;;;;4.50;1.25;;;;;;;;5098044;27;28545;-78
2023/12/30 10:18:17;;;;;;;;;2.33;1.67;;;;;;;;5097782;27;28764;-75
2023/12/30 10:20:43;;;;;;;;;2.00;2.00;;;;;;;;5083331;27;29876;-76
2023/12/30 10:23:09;;;;;;;;;2.00;2.00;;;;;;;;5098306;27;28464;-78
2023/12/30 10:25:34;;;;;;;;;1.00;1.00;;;;;;;;5106047;27;28863;-80
2023/12/30 10:28:00;;;;;;;;;3.00;2.00;;;;;;;;5080197;27;29493;-79
2023/12/30 10:30:25;;;;;;;;;0.50;0.00;;;;;;;;5075345;27;30588;-81
2023/12/30 10:32:51;;;;;;;;;3.00;2.00;;;;;;;;5089844;27;28444;-79
2023/12/30 10:35:16;;;;;;;;;1.67;1.00;;;;;;;;5098764;27;28681;-78
2023/12/30 10:37:44;;;;;;;;;3.33;1.67;;;;;;;;5106181;27;28554;-79
2023/12/30 10:40:09;;;;;;;;;3.00;0.25;;;;;;;;5098161;27;29206;-79
2023/12/30 10:42:35;;;;;;;;;2.00;1.00;;;;;;;;5096314;27;28341;-79
2023/12/30 10:45:00;;;;;;;;;4.67;2.33;;;;;;;;5077073;28;28572;-80
2023/12/30 10:47:26;;;;;;;;;3.00;2.00;;;;;;;;5087287;28;28572;-78
2023/12/30 10:49:54;;;;;;;;;1.00;1.00;;;;;;;;5086172;27;29328;-79
2023/12/30 10:52:23;;;;;;;;;1.00;1.00;;;;;;;;5090640;27;28428;-78
2023/12/30 10:54:54;;;;;;;;;2.00;1.00;;;;;;;;5093227;27;27909;-77
2023/12/30 10:57:22;;;;;;;;;3.00;1.00;;;;;;;;5092163;27;28740;-76
2023/12/30 10:59:49;;;;;;;;;2.00;2.00;;;;;;;;5084571;27;28696;-79
2023/12/30 11:02:15;;;;;;;;;3.00;3.00;;;;;;;;5101763;27;29545;-77
2023/12/30 11:04:41;;;;;;;;;2.00;2.00;;;;;;;;5094202;27;28904;-78
2023/12/30 11:07:10;;;;;;;;;1.00;1.00;;;;;;;;5082141;27;29720;-79
2023/12/30 11:09:36;;;;;;;;;5.00;1.33;;;;;;;;5090822;27;28775;-78
2023/12/30 11:12:01;;;;;;;;;4.00;4.00;;;;;;;;5090596;27;29135;-77
2023/12/30 11:14:27;;;;;;;;;2.33;2.33;;;;;;;;5091785;27;28535;-79
2023/12/30 11:16:54;;;;;;;;;2.00;2.00;;;;;;;;5095377;27;28413;-79
2023/12/30 11:19:26;;;;;;;;;2.00;2.00;;;;;;;;5099210;27;28638;-78
2023/12/30 11:21:52;;;;;;;;;2.50;2.50;;;;;;;;5091844;27;28693;-79
2023/12/30 11:24:18;;;;;;;;;2.00;2.00;;;;;;;;5077804;27;28554;-79
2023/12/30 11:26:44;;;;;;;;;5.00;5.00;;;;;;;;5095495;27;28649;-79
2023/12/30 11:29:20;;;;;;;;;2.67;2.00;;;;;;;;5095675;27;29153;-81
2023/12/30 11:31:49;;;;;;;;;3.67;2.00;;;;;;;;5071153;27;30171;-79
2023/12/30 11:34:15;;;;;;;;;2.00;2.00;;;;;;;;5079855;28;28834;-79
2023/12/30 11:36:42;;;;;;;;;2.00;0.33;;;;;;;;5100390;27;28887;-79
2023/12/30 11:39:07;;;;;;;;;4.00;1.67;;;;;;;;5089185;27;28539;-79
2023/12/30 11:41:33;;;;;;;;;2.33;2.33;;;;;;;;5092314;27;28508;-76
2023/12/30 11:44:03;;;;;;;;;1.00;1.00;;;;;;;;5089145;27;28970;-78
2023/12/30 11:46:29;;;;;;;;;2.67;2.00;;;;;;;;5090356;27;28670;-77
2023/12/30 11:48:54;;;;;;;;;3.00;2.00;;;;;;;;5092049;28;28799;-78
2023/12/30 11:51:24;;;;;;;;;2.67;2.67;;;;;;;;5066864;28;29426;-78
2023/12/30 11:53:49;;;;;;;;;2.67;2.00;;;;;;;;5091425;27;28760;-78
2023/12/30 11:56:19;;;;;;;;;3.00;2.00;;;;;;;;5093206;27;28542;-79
2023/12/30 11:58:45;;;;;;;;;2.00;2.00;;;;;;;;5088471;28;28784;-75
2023/12/30 12:01:11;;;;;;;;;1.67;1.67;;;;;;;;5089054;27;28631;-79
2023/12/30 12:03:36;;;;;;;;;3.00;1.33;;;;;;;;5090231;27;28500;-76
2023/12/30 12:06:01;;;;;;;;;5.00;2.67;;;;;;;;5088732;27;28825;-76
2023/12/30 12:08:27;;;;;;;;;1.33;1.33;;;;;;;;5079779;28;28626;-79
2023/12/30 12:10:53;;;;;;;;;2.50;2.00;;;;;;;;5086641;28;28441;-78
2023/12/30 12:13:21;;;;;;;;;1.67;1.67;;;;;;;;5068196;28;28577;-79
2023/12/30 12:15:50;;;;;;;;;1.33;1.33;;;;;;;;5082373;27;28459;-78
2023/12/30 12:18:15;;;;;;;;;2.33;1.00;;;;;;;;5088246;27;28581;-80
2023/12/30 12:20:42;;;;;;;;;2.00;2.00;;;;;;;;5089968;27;28397;-79
2023/12/30 12:23:08;;;;;;;;;1.00;1.00;;;;;;;;5074021;28;28472;-80
2023/12/30 12:25:33;;;;;;;;;1.00;1.00;;;;;;;;5070931;28;29952;-78
2023/12/30 12:27:59;;;;;;;;;2.67;2.00;;;;;;;;5064724;28;29114;-78
2023/12/30 12:30:24;;;;;;;;;2.00;2.00;;;;;;;;5090245;27;28793;-79
2023/12/30 12:32:49;;;;;;;;;2.00;2.00;;;;;;;;5095124;27;29017;-79
2023/12/30 12:35:14;;;;;;;;;4.00;2.67;;;;;;;;5085484;27;28554;-79
2023/12/30 12:37:40;;;;;;;;;1.67;1.67;;;;;;;;5071987;28;29994;-79
2023/12/30 12:40:10;;;;;;;;;1.00;1.00;;;;;;;;5075232;28;28648;-78
2023/12/30 12:42:35;;;;;;;;;3.00;1.00;;;;;;;;5068954;28;28585;-80
2023/12/30 12:45:01;;;;;;;;;1.00;1.00;;;;;;;;5068422;28;28563;-78
2023/12/30 12:47:26;;;;;;;;;3.00;3.00;;;;;;;;5068802;28;28685;-78
2023/12/30 12:49:51;;;;;;;;;1.67;1.67;;;;;;;;5067671;28;28519;-78
2023/12/30 12:52:16;;;;;;;;;1.67;1.67;;;;;;;;5068203;28;28644;-79
2023/12/30 12:54:42;;;;;;;;;1.00;1.00;;;;;;;;5067351;28;28675;-79
2023/12/30 12:57:08;;;;;;;;;1.00;1.00;;;;;;;;5063345;28;30071;-77
2023/12/30 12:59:33;;;;;;;;;1.50;1.00;;;;;;;;5065067;28;28954;-79
2023/12/30 13:01:59;;;;;;;;;0.00;0.00;;;;;;;;5067091;28;28553;-78
2023/12/30 13:04:24;;;;;;;;;0.00;0.00;;;;;;;;5053369;28;28858;-77
2023/12/30 13:06:50;;;;;;;;;2.33;1.33;;;;;;;;5067019;28;29276;-73
2023/12/30 13:09:34;;;;;;;;;0.67;0.67;;;;;;;;5073429;28;28754;-79
2023/12/30 13:12:01;;;;;;;;;1.00;1.00;;;;;;;;5069478;28;28787;-79
2023/12/30 13:14:27;;;;;;;;;0.00;0.00;;;;;;;;5061171;28;28834;-78
2023/12/30 13:16:56;;;;;;;;;1.33;1.33;;;;;;;;5060156;28;29371;-79
2023/12/30 13:19:21;;;;;;;;;1.00;1.00;;;;;;;;5065277;28;28743;-77
2023/12/30 13:21:47;;;;;;;;;1.00;1.00;;;;;;;;5074217;28;29131;-78
2023/12/30 13:24:12;;;;;;;;;0.00;0.00;;;;;;;;5065985;28;28446;-78
2023/12/30 13:26:38;;;;;;;;;1.00;0.33;;;;;;;;5065138;28;30808;-75
2023/12/30 13:29:03;;;;;;;;;1.00;1.00;;;;;;;;5067206;28;28808;-78
2023/12/30 13:31:34;;;;;;;;;0.00;0.00;;;;;;;;5063712;28;28477;-78
2023/12/30 13:33:59;;;;;;;;;0.00;0.00;;;;;;;;5065595;28;28534;-79
2023/12/30 13:36:25;;;;;;;;;2.00;1.00;;;;;;;;5073159;28;29098;-77
2023/12/30 13:38:52;;;;;;;;;0.00;0.00;;;;;;;;5069941;28;30123;-76
2023/12/30 13:41:23;;;;;;;;;0.75;0.25;;;;;;;;5064755;28;28736;-79
2023/12/30 13:43:52;;;;;;;;;1.00;1.00;;;;;;;;5064559;28;28435;-75
2023/12/30 13:51:47;;;;;;;;;0.00;0.00;;;;;;;;5068791;28;28761;-77
2023/12/30 13:54:17;;;;;;;;;1.00;1.00;;;;;;;;5073064;28;29001;-76
2023/12/30 13:56:44;;;;;;;;;0.00;0.00;;;;;;;;5075843;28;28616;-78
2023/12/30 13:59:12;;;;;;;;;1.00;1.00;;;;;;;;5070035;28;28399;-77
2023/12/30 14:01:38;;;;;;;;;1.00;1.00;;;;;;;;5067748;28;28729;-78
2023/12/30 14:04:05;;;;;;;;;9.33;8.33;;;;;;;;5072291;28;28473;-80
2023/12/30 14:06:35;;;;;;;;;3.00;2.00;;;;;;;;5068941;28;28759;-77
2023/12/30 14:09:25;;;;;;;;;1.75;1.75;;;;;;;;5071746;28;28430;-78
2023/12/30 14:12:02;;;;;;;;;2.67;2.00;;;;;;;;5069384;28;28527;-75
2023/12/30 14:14:34;;;;;;;;;2.00;1.00;;;;;;;;5072555;28;28490;-77
2023/12/30 14:17:00;;;;;;;;;4.33;4.00;;;;;;;;5070699;28;28942;-77
2023/12/30 14:19:25;;;;;;;;;2.00;2.00;;;;;;;;5077344;27;28580;-74
2023/12/30 14:21:51;;;;;;;;;3.00;1.00;;;;;;;;5071093;28;28506;-77
2023/12/30 14:24:18;;;;;;;;;1.33;1.33;;;;;;;;5071986;28;29235;-76
2023/12/30 14:26:44;;;;;;;;;1.00;1.00;;;;;;;;5076014;28;28533;-76
2023/12/30 14:29:09;;;;;;;;;2.00;2.00;;;;;;;;5075900;28;28469;-76
2023/12/30 14:31:35;;;;;;;;;2.00;1.00;;;;;;;;5078914;28;28393;-76
2023/12/30 14:34:00;;;;;;;;;1.00;1.00;;;;;;;;5074616;28;29394;-76
2023/12/30 14:36:26;;;;;;;;;3.00;3.00;;;;;;;;5077293;28;28380;-78
2023/12/30 14:38:51;;;;;;;;;4.67;2.33;;;;;;;;5095506;27;28673;-78
2023/12/30 14:41:16;;;;;;;;;3.00;2.00;;;;;;;;5101219;27;28321;-78